Terminal Aerodrome Forecast
Issued by NWS

Home | Current Version | Previous Version | Text Only | Print | Product List | Glossary On
Versions: 1 2 3 4 5 6 7 8 9 10 11 12 13 14 15 16 17 18 19 20 21 22
000
FTUS43 KGRB 180908 AAA
TAFRHI
TAF AMD
KRHI 180908Z 1809/1906 24004KT 2SM BR OVC003
      TEMPO 1809/1813 1SM BR OVC002
     FM181500 23005KT 5SM BR BKN006
     FM181700 22008KT P6SM BKN012
     FM182100 22009KT P6SM BKN030
     FM190300 24010KT P6SM OVC015=

USA.gov is the U.S. government's official web portal to all federal, state and local government web resources and services.